sensor_id;sensor_type;location;lat;lon;timestamp;P1;durP1;ratioP1;P2;durP2;ratioP2
20743;SDS011;56303;52.160;-0.428;2023-08-21T00:00:12;5.20;;;2.50;;
20743;SDS011;56303;52.160;-0.428;2023-08-21T00:02:39;5.60;;;2.60;;
20743;SDS011;56303;52.160;-0.428;2023-08-21T00:05:07;5.63;;;2.67;;
20743;SDS011;56303;52.160;-0.428;2023-08-21T00:07:34;4.60;;;2.77;;
20743;SDS011;56303;52.160;-0.428;2023-08-21T00:10:00;6.10;;;2.93;;
20743;SDS011;56303;52.160;-0.428;2023-08-21T00:12:27;6.23;;;2.83;;
20743;SDS011;56303;52.160;-0.428;2023-08-21T00:14:54;6.23;;;2.93;;
20743;SDS011;56303;52.160;-0.428;2023-08-21T00:17:21;4.50;;;2.87;;
20743;SDS011;56303;52.160;-0.428;2023-08-21T00:19:48;5.30;;;2.77;;
20743;SDS011;56303;52.160;-0.428;2023-08-21T00:22:14;6.03;;;2.83;;
20743;SDS011;56303;52.160;-0.428;2023-08-21T00:24:41;5.20;;;2.67;;
20743;SDS011;56303;52.160;-0.428;2023-08-21T00:27:08;6.63;;;2.67;;
20743;SDS011;56303;52.160;-0.428;2023-08-21T00:29:35;6.13;;;3.30;;
20743;SDS011;56303;52.160;-0.428;2023-08-21T00:32:02;5.57;;;2.90;;
20743;SDS011;56303;52.160;-0.428;2023-08-21T00:34:29;4.47;;;2.67;;
20743;SDS011;56303;52.160;-0.428;2023-08-21T00:36:56;4.70;;;2.90;;
20743;SDS011;56303;52.160;-0.428;2023-08-21T00:39:22;5.33;;;3.70;;
20743;SDS011;56303;52.160;-0.428;2023-08-21T00:41:49;5.60;;;3.00;;
20743;SDS011;56303;52.160;-0.428;2023-08-21T00:44:16;10.13;;;3.50;;
20743;SDS011;56303;52.160;-0.428;2023-08-21T00:46:43;5.30;;;3.27;;
20743;SDS011;56303;52.160;-0.428;2023-08-21T00:49:10;6.13;;;3.73;;
20743;SDS011;56303;52.160;-0.428;2023-08-21T00:51:37;7.57;;;3.27;;
20743;SDS011;56303;52.160;-0.428;2023-08-21T00:54:04;4.43;;;3.03;;
20743;SDS011;56303;52.160;-0.428;2023-08-21T00:56:31;6.47;;;3.40;;
20743;SDS011;56303;52.160;-0.428;2023-08-21T00:58:58;6.90;;;3.47;;
20743;SDS011;56303;52.160;-0.428;2023-08-21T01:01:25;6.67;;;3.63;;
20743;SDS011;56303;52.160;-0.428;2023-08-21T01:03:54;6.40;;;3.17;;
20743;SDS011;56303;52.160;-0.428;2023-08-21T01:06:21;6.90;;;3.17;;
20743;SDS011;56303;52.160;-0.428;2023-08-21T01:14:09;7.57;;;3.60;;
20743;SDS011;56303;52.160;-0.428;2023-08-21T01:17:00;5.17;;;3.60;;
20743;SDS011;56303;52.160;-0.428;2023-08-21T01:19:40;7.53;;;3.37;;
20743;SDS011;56303;52.160;-0.428;2023-08-21T01:22:07;6.67;;;3.63;;
20743;SDS011;56303;52.160;-0.428;2023-08-21T01:24:34;8.73;;;3.53;;
20743;SDS011;56303;52.160;-0.428;2023-08-21T01:27:01;7.40;;;3.70;;
20743;SDS011;56303;52.160;-0.428;2023-08-21T01:29:28;7.30;;;3.57;;
20743;SDS011;56303;52.160;-0.428;2023-08-21T01:32:06;9.37;;;3.47;;
20743;SDS011;56303;52.160;-0.428;2023-08-21T01:34:45;7.93;;;3.70;;
20743;SDS011;56303;52.160;-0.428;2023-08-21T01:37:13;8.27;;;4.30;;
20743;SDS011;56303;52.160;-0.428;2023-08-21T01:39:40;8.17;;;4.27;;
20743;SDS011;56303;52.160;-0.428;2023-08-21T01:42:07;7.73;;;3.80;;
20743;SDS011;56303;52.160;-0.428;2023-08-21T01:44:34;5.40;;;3.50;;
20743;SDS011;56303;52.160;-0.428;2023-08-21T01:47:01;6.57;;;3.57;;
20743;SDS011;56303;52.160;-0.428;2023-08-21T01:49:28;9.10;;;3.80;;
20743;SDS011;56303;52.160;-0.428;2023-08-21T01:51:54;7.20;;;4.43;;
20743;SDS011;56303;52.160;-0.428;2023-08-21T01:54:21;10.10;;;4.13;;
20743;SDS011;56303;52.160;-0.428;2023-08-21T01:56:48;8.63;;;3.80;;
20743;SDS011;56303;52.160;-0.428;2023-08-21T01:59:16;8.60;;;4.37;;
20743;SDS011;56303;52.160;-0.428;2023-08-21T02:01:43;6.37;;;3.93;;
20743;SDS011;56303;52.160;-0.428;2023-08-21T02:04:09;9.17;;;4.70;;
20743;SDS011;56303;52.160;-0.428;2023-08-21T02:06:36;6.23;;;4.47;;
20743;SDS011;56303;52.160;-0.428;2023-08-21T02:09:03;11.43;;;5.10;;
20743;SDS011;56303;52.160;-0.428;2023-08-21T02:11:30;7.83;;;4.10;;
20743;SDS011;56303;52.160;-0.428;2023-08-21T02:13:57;5.63;;;4.37;;
20743;SDS011;56303;52.160;-0.428;2023-08-21T02:16:23;8.57;;;4.87;;
20743;SDS011;56303;52.160;-0.428;2023-08-21T02:18:51;7.83;;;4.53;;
20743;SDS011;56303;52.160;-0.428;2023-08-21T02:21:17;8.70;;;5.37;;
20743;SDS011;56303;52.160;-0.428;2023-08-21T02:23:44;8.57;;;4.97;;
20743;SDS011;56303;52.160;-0.428;2023-08-21T02:26:11;10.23;;;5.60;;
20743;SDS011;56303;52.160;-0.428;2023-08-21T02:28:38;9.83;;;5.67;;
20743;SDS011;56303;52.160;-0.428;2023-08-21T02:31:08;10.80;;;5.20;;
20743;SDS011;56303;52.160;-0.428;2023-08-21T02:33:36;11.90;;;6.30;;
20743;SDS011;56303;52.160;-0.428;2023-08-21T02:36:03;11.67;;;6.03;;
20743;SDS011;56303;52.160;-0.428;2023-08-21T02:38:30;8.50;;;5.50;;
20743;SDS011;56303;52.160;-0.428;2023-08-21T02:40:57;10.87;;;6.33;;
20743;SDS011;56303;52.160;-0.428;2023-08-21T02:43:24;13.00;;;6.20;;
20743;SDS011;56303;52.160;-0.428;2023-08-21T02:45:50;8.30;;;5.97;;
20743;SDS011;56303;52.160;-0.428;2023-08-21T02:48:17;11.77;;;6.47;;
20743;SDS011;56303;52.160;-0.428;2023-08-21T02:50:44;9.73;;;6.13;;
20743;SDS011;56303;52.160;-0.428;2023-08-21T02:53:12;18.60;;;6.23;;
20743;SDS011;56303;52.160;-0.428;2023-08-21T02:55:38;10.00;;;6.00;;
20743;SDS011;56303;52.160;-0.428;2023-08-21T02:58:05;8.53;;;5.37;;
20743;SDS011;56303;52.160;-0.428;2023-08-21T03:00:32;7.73;;;5.67;;
20743;SDS011;56303;52.160;-0.428;2023-08-21T03:02:59;10.97;;;6.07;;
20743;SDS011;56303;52.160;-0.428;2023-08-21T03:05:26;11.90;;;6.03;;
20743;SDS011;56303;52.160;-0.428;2023-08-21T03:07:52;9.73;;;6.20;;
20743;SDS011;56303;52.160;-0.428;2023-08-21T03:10:19;10.33;;;6.00;;
20743;SDS011;56303;52.160;-0.428;2023-08-21T03:12:49;12.20;;;6.37;;
20743;SDS011;56303;52.160;-0.428;2023-08-21T03:15:15;10.33;;;5.23;;
20743;SDS011;56303;52.160;-0.428;2023-08-21T03:17:42;10.67;;;6.57;;
20743;SDS011;56303;52.160;-0.428;2023-08-21T03:20:09;10.33;;;5.80;;
20743;SDS011;56303;52.160;-0.428;2023-08-21T03:22:37;9.37;;;5.80;;
20743;SDS011;56303;52.160;-0.428;2023-08-21T03:25:04;12.27;;;5.47;;
20743;SDS011;56303;52.160;-0.428;2023-08-21T03:27:31;8.97;;;5.20;;
20743;SDS011;56303;52.160;-0.428;2023-08-21T03:29:58;9.50;;;5.80;;
20743;SDS011;56303;52.160;-0.428;2023-08-21T03:32:27;11.73;;;6.10;;
20743;SDS011;56303;52.160;-0.428;2023-08-21T03:34:54;11.10;;;5.90;;
20743;SDS011;56303;52.160;-0.428;2023-08-21T03:37:21;9.67;;;5.17;;
20743;SDS011;56303;52.160;-0.428;2023-08-21T03:39:47;11.67;;;5.70;;
20743;SDS011;56303;52.160;-0.428;2023-08-21T03:42:14;12.87;;;6.20;;
20743;SDS011;56303;52.160;-0.428;2023-08-21T03:44:42;9.07;;;5.37;;
20743;SDS011;56303;52.160;-0.428;2023-08-21T03:47:09;12.47;;;6.73;;
20743;SDS011;56303;52.160;-0.428;2023-08-21T03:49:36;9.33;;;5.50;;
20743;SDS011;56303;52.160;-0.428;2023-08-21T03:52:03;12.27;;;5.67;;
20743;SDS011;56303;52.160;-0.428;2023-08-21T03:54:30;10.73;;;5.43;;
20743;SDS011;56303;52.160;-0.428;2023-08-21T03:56:57;11.83;;;5.70;;
20743;SDS011;56303;52.160;-0.428;2023-08-21T03:59:24;9.70;;;6.60;;
20743;SDS011;56303;52.160;-0.428;2023-08-21T04:01:53;12.10;;;6.30;;
20743;SDS011;56303;52.160;-0.428;2023-08-21T04:04:20;10.33;;;6.20;;
20743;SDS011;56303;52.160;-0.428;2023-08-21T04:06:47;12.77;;;7.37;;
20743;SDS011;56303;52.160;-0.428;2023-08-21T04:09:14;9.33;;;6.20;;
20743;SDS011;56303;52.160;-0.428;2023-08-21T04:11:41;12.63;;;6.73;;
20743;SDS011;56303;52.160;-0.428;2023-08-21T04:14:07;9.67;;;7.50;;
20743;SDS011;56303;52.160;-0.428;2023-08-21T04:16:34;15.33;;;7.80;;
20743;SDS011;56303;52.160;-0.428;2023-08-21T04:19:01;11.37;;;7.80;;
20743;SDS011;56303;52.160;-0.428;2023-08-21T04:21:28;16.30;;;8.53;;
20743;SDS011;56303;52.160;-0.428;2023-08-21T04:23:57;12.93;;;8.23;;
20743;SDS011;56303;52.160;-0.428;2023-08-21T04:26:24;16.20;;;9.10;;
20743;SDS011;56303;52.160;-0.428;2023-08-21T04:28:50;11.27;;;8.77;;
20743;SDS011;56303;52.160;-0.428;2023-08-21T04:31:17;13.83;;;8.80;;
20743;SDS011;56303;52.160;-0.428;2023-08-21T04:33:44;14.80;;;9.37;;
20743;SDS011;56303;52.160;-0.428;2023-08-21T04:36:15;17.93;;;9.80;;
20743;SDS011;56303;52.160;-0.428;2023-08-21T04:38:42;14.97;;;9.10;;
20743;SDS011;56303;52.160;-0.428;2023-08-21T04:41:10;11.97;;;9.60;;
20743;SDS011;56303;52.160;-0.428;2023-08-21T04:43:37;14.10;;;9.80;;
20743;SDS011;56303;52.160;-0.428;2023-08-21T04:46:04;14.37;;;9.10;;
20743;SDS011;56303;52.160;-0.428;2023-08-21T04:48:31;17.37;;;10.73;;
20743;SDS011;56303;52.160;-0.428;2023-08-21T04:50:57;14.30;;;10.70;;
20743;SDS011;56303;52.160;-0.428;2023-08-21T04:53:24;19.03;;;9.13;;
20743;SDS011;56303;52.160;-0.428;2023-08-21T04:55:51;12.57;;;8.83;;
20743;SDS011;56303;52.160;-0.428;2023-08-21T04:58:19;16.87;;;9.07;;
20743;SDS011;56303;52.160;-0.428;2023-08-21T05:00:46;13.70;;;8.43;;
20743;SDS011;56303;52.160;-0.428;2023-08-21T05:03:13;13.43;;;9.07;;
20743;SDS011;56303;52.160;-0.428;2023-08-21T05:05:40;15.73;;;8.63;;
20743;SDS011;56303;52.160;-0.428;2023-08-21T05:08:07;14.47;;;9.07;;
20743;SDS011;56303;52.160;-0.428;2023-08-21T05:10:34;14.70;;;9.07;;
20743;SDS011;56303;52.160;-0.428;2023-08-21T05:13:00;14.77;;;9.00;;
20743;SDS011;56303;52.160;-0.428;2023-08-21T05:15:30;15.23;;;8.73;;
20743;SDS011;56303;52.160;-0.428;2023-08-21T05:17:57;15.13;;;8.43;;
20743;SDS011;56303;52.160;-0.428;2023-08-21T05:20:24;13.43;;;8.63;;
20743;SDS011;56303;52.160;-0.428;2023-08-21T05:22:51;13.63;;;8.40;;
20743;SDS011;56303;52.160;-0.428;2023-08-21T05:25:17;14.33;;;8.70;;
20743;SDS011;56303;52.160;-0.428;2023-08-21T05:27:44;12.87;;;8.20;;
20743;SDS011;56303;52.160;-0.428;2023-08-21T05:30:11;15.43;;;9.00;;
20743;SDS011;56303;52.160;-0.428;2023-08-21T05:32:39;12.33;;;8.13;;
20743;SDS011;56303;52.160;-0.428;2023-08-21T05:35:07;13.97;;;8.70;;
20743;SDS011;56303;52.160;-0.428;2023-08-21T05:37:36;12.70;;;8.40;;
20743;SDS011;56303;52.160;-0.428;2023-08-21T05:40:03;12.60;;;10.00;;
20743;SDS011;56303;52.160;-0.428;2023-08-21T05:42:30;16.67;;;11.07;;
20743;SDS011;56303;52.160;-0.428;2023-08-21T05:44:57;18.50;;;11.50;;
20743;SDS011;56303;52.160;-0.428;2023-08-21T05:47:24;15.57;;;12.20;;
20743;SDS011;56303;52.160;-0.428;2023-08-21T05:49:53;18.03;;;12.63;;
20743;SDS011;56303;52.160;-0.428;2023-08-21T05:52:20;20.57;;;12.73;;
20743;SDS011;56303;52.160;-0.428;2023-08-21T05:54:48;16.83;;;12.33;;
20743;SDS011;56303;52.160;-0.428;2023-08-21T05:57:15;20.80;;;12.93;;
20743;SDS011;56303;52.160;-0.428;2023-08-21T05:59:43;18.03;;;13.53;;
20743;SDS011;56303;52.160;-0.428;2023-08-21T06:02:11;14.97;;;11.70;;
20743;SDS011;56303;52.160;-0.428;2023-08-21T06:04:39;16.80;;;12.60;;
20743;SDS011;56303;52.160;-0.428;2023-08-21T06:07:07;16.63;;;13.13;;
20743;SDS011;56303;52.160;-0.428;2023-08-21T06:09:35;16.83;;;12.23;;
20743;SDS011;56303;52.160;-0.428;2023-08-21T06:12:05;20.43;;;13.07;;
20743;SDS011;56303;52.160;-0.428;2023-08-21T06:14:32;15.83;;;12.03;;
20743;SDS011;56303;52.160;-0.428;2023-08-21T06:16:59;19.97;;;13.93;;
20743;SDS011;56303;52.160;-0.428;2023-08-21T06:19:28;21.73;;;13.97;;
20743;SDS011;56303;52.160;-0.428;2023-08-21T06:21:55;19.07;;;14.57;;
20743;SDS011;56303;52.160;-0.428;2023-08-21T06:24:22;17.33;;;12.87;;
20743;SDS011;56303;52.160;-0.428;2023-08-21T06:26:51;14.80;;;12.20;;
20743;SDS011;56303;52.160;-0.428;2023-08-21T06:29:18;16.87;;;12.53;;
20743;SDS011;56303;52.160;-0.428;2023-08-21T06:31:47;20.93;;;13.10;;
20743;SDS011;56303;52.160;-0.428;2023-08-21T06:34:13;16.97;;;11.80;;
20743;SDS011;56303;52.160;-0.428;2023-08-21T06:36:40;19.10;;;11.40;;
20743;SDS011;56303;52.160;-0.428;2023-08-21T06:39:07;16.03;;;10.83;;
20743;SDS011;56303;52.160;-0.428;2023-08-21T06:41:34;14.60;;;10.70;;
20743;SDS011;56303;52.160;-0.428;2023-08-21T06:44:01;16.27;;;10.60;;
20743;SDS011;56303;52.160;-0.428;2023-08-21T06:46:28;14.30;;;10.20;;
20743;SDS011;56303;52.160;-0.428;2023-08-21T06:48:55;18.43;;;10.30;;
20743;SDS011;56303;52.160;-0.428;2023-08-21T06:51:22;14.80;;;11.30;;
20743;SDS011;56303;52.160;-0.428;2023-08-21T06:53:48;16.20;;;12.63;;
20743;SDS011;56303;52.160;-0.428;2023-08-21T06:56:18;19.23;;;12.97;;
20743;SDS011;56303;52.160;-0.428;2023-08-21T06:58:46;18.90;;;13.07;;
20743;SDS011;56303;52.160;-0.428;2023-08-21T07:01:13;15.40;;;12.53;;
20743;SDS011;56303;52.160;-0.428;2023-08-21T07:03:40;18.73;;;12.50;;
20743;SDS011;56303;52.160;-0.428;2023-08-21T07:06:07;18.07;;;12.70;;
20743;SDS011;56303;52.160;-0.428;2023-08-21T07:08:34;13.50;;;10.33;;
20743;SDS011;56303;52.160;-0.428;2023-08-21T07:11:04;12.40;;;8.87;;
20743;SDS011;56303;52.160;-0.428;2023-08-21T07:13:30;12.10;;;8.90;;
20743;SDS011;56303;52.160;-0.428;2023-08-21T07:15:57;12.43;;;8.37;;
20743;SDS011;56303;52.160;-0.428;2023-08-21T07:18:24;11.07;;;8.67;;
20743;SDS011;56303;52.160;-0.428;2023-08-21T07:20:52;13.90;;;7.90;;
20743;SDS011;56303;52.160;-0.428;2023-08-21T07:23:19;10.87;;;8.67;;
20743;SDS011;56303;52.160;-0.428;2023-08-21T07:25:46;10.90;;;9.03;;
20743;SDS011;56303;52.160;-0.428;2023-08-21T07:28:13;10.37;;;8.70;;
20743;SDS011;56303;52.160;-0.428;2023-08-21T07:30:40;9.57;;;7.87;;
20743;SDS011;56303;52.160;-0.428;2023-08-21T07:33:07;10.73;;;7.53;;
20743;SDS011;56303;52.160;-0.428;2023-08-21T07:35:34;12.43;;;8.83;;
20743;SDS011;56303;52.160;-0.428;2023-08-21T07:38:02;12.63;;;8.33;;
20743;SDS011;56303;52.160;-0.428;2023-08-21T07:40:29;11.50;;;9.23;;
20743;SDS011;56303;52.160;-0.428;2023-08-21T07:42:56;11.73;;;9.73;;
20743;SDS011;56303;52.160;-0.428;2023-08-21T07:45:23;11.17;;;8.80;;
20743;SDS011;56303;52.160;-0.428;2023-08-21T07:47:50;11.60;;;9.27;;
20743;SDS011;56303;52.160;-0.428;2023-08-21T07:50:36;10.67;;;9.53;;
20743;SDS011;56303;52.160;-0.428;2023-08-21T07:53:03;11.37;;;9.03;;
20743;SDS011;56303;52.160;-0.428;2023-08-21T07:55:30;10.70;;;8.40;;
20743;SDS011;56303;52.160;-0.428;2023-08-21T07:57:57;10.23;;;7.50;;
20743;SDS011;56303;52.160;-0.428;2023-08-21T08:00:24;8.47;;;6.77;;
20743;SDS011;56303;52.160;-0.428;2023-08-21T08:02:50;12.03;;;7.07;;
20743;SDS011;56303;52.160;-0.428;2023-08-21T08:05:17;11.63;;;7.87;;
20743;SDS011;56303;52.160;-0.428;2023-08-21T08:07:44;10.13;;;5.77;;
20743;SDS011;56303;52.160;-0.428;2023-08-21T08:10:12;8.33;;;5.67;;
20743;SDS011;56303;52.160;-0.428;2023-08-21T08:12:41;9.30;;;4.97;;
20743;SDS011;56303;52.160;-0.428;2023-08-21T08:15:08;8.43;;;5.10;;
20743;SDS011;56303;52.160;-0.428;2023-08-21T08:17:36;7.30;;;3.80;;
20743;SDS011;56303;52.160;-0.428;2023-08-21T08:20:03;7.77;;;3.77;;
20743;SDS011;56303;52.160;-0.428;2023-08-21T08:22:32;6.50;;;3.90;;
20743;SDS011;56303;52.160;-0.428;2023-08-21T08:24:59;7.97;;;3.90;;
20743;SDS011;56303;52.160;-0.428;2023-08-21T08:27:26;5.97;;;3.60;;
20743;SDS011;56303;52.160;-0.428;2023-08-21T08:29:53;9.57;;;3.33;;
20743;SDS011;56303;52.160;-0.428;2023-08-21T08:32:20;7.10;;;3.03;;
20743;SDS011;56303;52.160;-0.428;2023-08-21T08:34:47;7.57;;;3.00;;
20743;SDS011;56303;52.160;-0.428;2023-08-21T08:37:14;8.30;;;3.17;;
20743;SDS011;56303;52.160;-0.428;2023-08-21T08:39:40;7.40;;;2.93;;
20743;SDS011;56303;52.160;-0.428;2023-08-21T08:42:07;5.03;;;2.67;;
20743;SDS011;56303;52.160;-0.428;2023-08-21T08:44:35;7.03;;;3.17;;
20743;SDS011;56303;52.160;-0.428;2023-08-21T08:47:05;10.87;;;3.70;;
20743;SDS011;56303;52.160;-0.428;2023-08-21T08:49:33;5.53;;;2.90;;
20743;SDS011;56303;52.160;-0.428;2023-08-21T08:52:00;8.97;;;4.47;;
20743;SDS011;56303;52.160;-0.428;2023-08-21T08:54:27;7.57;;;3.80;;
20743;SDS011;56303;52.160;-0.428;2023-08-21T08:56:55;9.93;;;3.90;;
20743;SDS011;56303;52.160;-0.428;2023-08-21T08:59:22;6.70;;;3.50;;
20743;SDS011;56303;52.160;-0.428;2023-08-21T09:01:49;7.00;;;3.40;;
20743;SDS011;56303;52.160;-0.428;2023-08-21T09:04:16;11.83;;;3.80;;
20743;SDS011;56303;52.160;-0.428;2023-08-21T09:06:43;7.50;;;3.57;;
20743;SDS011;56303;52.160;-0.428;2023-08-21T09:09:10;6.07;;;3.40;;
20743;SDS011;56303;52.160;-0.428;2023-08-21T09:11:42;4.57;;;2.97;;
20743;SDS011;56303;52.160;-0.428;2023-08-21T09:14:10;7.97;;;3.73;;
20743;SDS011;56303;52.160;-0.428;2023-08-21T09:16:57;7.00;;;2.63;;
20743;SDS011;56303;52.160;-0.428;2023-08-21T09:19:27;6.13;;;2.80;;
20743;SDS011;56303;52.160;-0.428;2023-08-21T09:21:54;5.67;;;3.70;;
20743;SDS011;56303;52.160;-0.428;2023-08-21T09:24:21;5.93;;;2.63;;
20743;SDS011;56303;52.160;-0.428;2023-08-21T09:26:50;8.13;;;3.47;;
20743;SDS011;56303;52.160;-0.428;2023-08-21T09:29:17;6.30;;;3.30;;
20743;SDS011;56303;52.160;-0.428;2023-08-21T09:31:44;6.60;;;3.43;;
20743;SDS011;56303;52.160;-0.428;2023-08-21T09:34:12;8.17;;;3.07;;
20743;SDS011;56303;52.160;-0.428;2023-08-21T09:36:39;4.70;;;3.10;;
20743;SDS011;56303;52.160;-0.428;2023-08-21T09:39:08;8.13;;;2.73;;
20743;SDS011;56303;52.160;-0.428;2023-08-21T09:41:42;5.63;;;2.40;;
20743;SDS011;56303;52.160;-0.428;2023-08-21T09:44:20;8.73;;;2.83;;
20743;SDS011;56303;52.160;-0.428;2023-08-21T09:46:50;4.90;;;2.20;;
20743;SDS011;56303;52.160;-0.428;2023-08-21T09:49:17;4.60;;;2.07;;
20743;SDS011;56303;52.160;-0.428;2023-08-21T09:51:47;6.13;;;2.37;;
20743;SDS011;56303;52.160;-0.428;2023-08-21T09:54:14;4.47;;;1.80;;
20743;SDS011;56303;52.160;-0.428;2023-08-21T09:56:41;4.57;;;1.90;;
20743;SDS011;56303;52.160;-0.428;2023-08-21T09:59:08;4.73;;;2.10;;
20743;SDS011;56303;52.160;-0.428;2023-08-21T10:01:35;3.80;;;1.80;;
20743;SDS011;56303;52.160;-0.428;2023-08-21T10:04:05;4.53;;;2.40;;
20743;SDS011;56303;52.160;-0.428;2023-08-21T10:06:33;4.40;;;2.17;;
20743;SDS011;56303;52.160;-0.428;2023-08-21T10:09:01;7.60;;;2.87;;
20743;SDS011;56303;52.160;-0.428;2023-08-21T10:11:28;5.60;;;2.30;;
20743;SDS011;56303;52.160;-0.428;2023-08-21T10:13:55;3.73;;;2.30;;
20743;SDS011;56303;52.160;-0.428;2023-08-21T10:16:22;5.40;;;2.10;;
20743;SDS011;56303;52.160;-0.428;2023-08-21T10:18:51;4.80;;;1.80;;
20743;SDS011;56303;52.160;-0.428;2023-08-21T10:21:19;6.23;;;2.47;;
20743;SDS011;56303;52.160;-0.428;2023-08-21T10:23:48;5.13;;;2.23;;
20743;SDS011;56303;52.160;-0.428;2023-08-21T10:26:19;5.40;;;2.40;;
20743;SDS011;56303;52.160;-0.428;2023-08-21T10:33:59;5.30;;;2.37;;
20743;SDS011;56303;52.160;-0.428;2023-08-21T10:39:14;4.23;;;2.40;;
20743;SDS011;56303;52.160;-0.428;2023-08-21T10:41:58;5.87;;;2.77;;
20743;SDS011;56303;52.160;-0.428;2023-08-21T10:44:36;6.33;;;2.93;;
20743;SDS011;56303;52.160;-0.428;2023-08-21T10:50:03;4.90;;;2.57;;
20743;SDS011;56303;52.160;-0.428;2023-08-21T10:55:11;3.10;;;1.70;;
20743;SDS011;56303;52.160;-0.428;2023-08-21T10:57:39;4.43;;;1.97;;
20743;SDS011;56303;52.160;-0.428;2023-08-21T11:00:13;4.83;;;2.20;;
20743;SDS011;56303;52.160;-0.428;2023-08-21T11:02:43;5.53;;;1.87;;
20743;SDS011;56303;52.160;-0.428;2023-08-21T11:05:12;4.33;;;2.07;;
20743;SDS011;56303;52.160;-0.428;2023-08-21T11:07:46;3.20;;;1.63;;
20743;SDS011;56303;52.160;-0.428;2023-08-21T11:10:15;5.43;;;2.10;;
20743;SDS011;56303;52.160;-0.428;2023-08-21T11:12:56;2.10;;;1.90;;
20743;SDS011;56303;52.160;-0.428;2023-08-21T11:15:26;4.70;;;2.17;;
20743;SDS011;56303;52.160;-0.428;2023-08-21T11:17:57;5.70;;;2.07;;
20743;SDS011;56303;52.160;-0.428;2023-08-21T11:20:27;3.40;;;1.95;;
20743;SDS011;56303;52.160;-0.428;2023-08-21T11:23:01;4.67;;;1.57;;
20743;SDS011;56303;52.160;-0.428;2023-08-21T11:25:33;4.50;;;2.20;;
20743;SDS011;56303;52.160;-0.428;2023-08-21T11:28:01;4.17;;;1.77;;
20743;SDS011;56303;52.160;-0.428;2023-08-21T11:30:30;3.90;;;1.70;;
20743;SDS011;56303;52.160;-0.428;2023-08-21T11:33:10;2.93;;;2.10;;
20743;SDS011;56303;52.160;-0.428;2023-08-21T11:35:38;2.63;;;1.57;;
20743;SDS011;56303;52.160;-0.428;2023-08-21T11:38:06;5.00;;;1.77;;
20743;SDS011;56303;52.160;-0.428;2023-08-21T11:40:39;3.22;;;1.70;;
20743;SDS011;56303;52.160;-0.428;2023-08-21T11:43:06;3.35;;;1.70;;
20743;SDS011;56303;52.160;-0.428;2023-08-21T11:45:35;4.07;;;1.55;;
20743;SDS011;56303;52.160;-0.428;2023-08-21T11:48:22;3.80;;;1.75;;
20743;SDS011;56303;52.160;-0.428;2023-08-21T11:50:49;5.28;;;1.92;;
20743;SDS011;56303;52.160;-0.428;2023-08-21T11:53:28;5.75;;;2.10;;
20743;SDS011;56303;52.160;-0.428;2023-08-21T11:55:56;2.53;;;1.63;;
20743;SDS011;56303;52.160;-0.428;2023-08-21T11:58:25;3.70;;;1.63;;
20743;SDS011;56303;52.160;-0.428;2023-08-21T12:00:53;3.67;;;1.70;;
20743;SDS011;56303;52.160;-0.428;2023-08-21T12:03:21;3.72;;;1.75;;
20743;SDS011;56303;52.160;-0.428;2023-08-21T12:05:48;4.63;;;1.80;;
20743;SDS011;56303;52.160;-0.428;2023-08-21T12:08:14;3.38;;;1.20;;
20743;SDS011;56303;52.160;-0.428;2023-08-21T12:10:41;5.32;;;1.77;;
20743;SDS011;56303;52.160;-0.428;2023-08-21T12:13:08;3.20;;;1.50;;
20743;SDS011;56303;52.160;-0.428;2023-08-21T12:15:35;3.05;;;1.63;;
20743;SDS011;56303;52.160;-0.428;2023-08-21T12:18:02;4.10;;;1.50;;
20743;SDS011;56303;52.160;-0.428;2023-08-21T12:20:29;2.92;;;1.42;;
20743;SDS011;56303;52.160;-0.428;2023-08-21T12:22:56;2.92;;;1.42;;
20743;SDS011;56303;52.160;-0.428;2023-08-21T12:25:22;3.75;;;1.80;;
20743;SDS011;56303;52.160;-0.428;2023-08-21T12:27:50;2.78;;;1.38;;
20743;SDS011;56303;52.160;-0.428;2023-08-21T12:30:33;4.15;;;1.75;;
20743;SDS011;56303;52.160;-0.428;2023-08-21T12:33:00;2.63;;;1.40;;
20743;SDS011;56303;52.160;-0.428;2023-08-21T12:35:45;2.45;;;1.45;;
20743;SDS011;56303;52.160;-0.428;2023-08-21T12:38:12;3.28;;;1.40;;
20743;SDS011;56303;52.160;-0.428;2023-08-21T12:40:39;2.50;;;1.20;;
20743;SDS011;56303;52.160;-0.428;2023-08-21T12:43:06;3.05;;;1.60;;
20743;SDS011;56303;52.160;-0.428;2023-08-21T12:45:35;2.42;;;1.52;;
20743;SDS011;56303;52.160;-0.428;2023-08-21T12:48:03;2.60;;;1.50;;
20743;SDS011;56303;52.160;-0.428;2023-08-21T12:50:31;3.50;;;1.50;;
20743;SDS011;56303;52.160;-0.428;2023-08-21T12:52:57;3.28;;;1.40;;
20743;SDS011;56303;52.160;-0.428;2023-08-21T12:55:25;2.38;;;1.45;;
20743;SDS011;56303;52.160;-0.428;2023-08-21T12:57:52;3.30;;;1.60;;
20743;SDS011;56303;52.160;-0.428;2023-08-21T13:00:19;4.30;;;1.73;;
20743;SDS011;56303;52.160;-0.428;2023-08-21T13:02:46;4.50;;;1.70;;
20743;SDS011;56303;52.160;-0.428;2023-08-21T13:05:13;1.50;;;1.27;;
20743;SDS011;56303;52.160;-0.428;2023-08-21T13:07:41;3.05;;;1.60;;
20743;SDS011;56303;52.160;-0.428;2023-08-21T13:10:08;1.23;;;0.93;;
20743;SDS011;56303;52.160;-0.428;2023-08-21T13:12:35;2.72;;;1.25;;
20743;SDS011;56303;52.160;-0.428;2023-08-21T13:15:03;2.35;;;1.33;;
20743;SDS011;56303;52.160;-0.428;2023-08-21T13:17:31;3.78;;;1.73;;
20743;SDS011;56303;52.160;-0.428;2023-08-21T13:19:58;2.92;;;1.40;;
20743;SDS011;56303;52.160;-0.428;2023-08-21T13:22:24;2.65;;;1.17;;
20743;SDS011;56303;52.160;-0.428;2023-08-21T13:24:51;6.43;;;1.35;;
20743;SDS011;56303;52.160;-0.428;2023-08-21T13:27:18;2.08;;;1.13;;
20743;SDS011;56303;52.160;-0.428;2023-08-21T13:29:46;3.58;;;1.55;;
20743;SDS011;56303;52.160;-0.428;2023-08-21T13:32:13;4.13;;;1.30;;
20743;SDS011;56303;52.160;-0.428;2023-08-21T13:34:39;3.45;;;1.38;;
20743;SDS011;56303;52.160;-0.428;2023-08-21T13:37:06;2.53;;;1.40;;
20743;SDS011;56303;52.160;-0.428;2023-08-21T13:39:33;3.88;;;1.73;;
20743;SDS011;56303;52.160;-0.428;2023-08-21T13:42:02;2.42;;;1.08;;
20743;SDS011;56303;52.160;-0.428;2023-08-21T13:44:29;1.92;;;1.33;;
20743;SDS011;56303;52.160;-0.428;2023-08-21T13:46:59;3.88;;;1.40;;
20743;SDS011;56303;52.160;-0.428;2023-08-21T13:49:26;4.30;;;1.33;;
20743;SDS011;56303;52.160;-0.428;2023-08-21T13:51:53;3.45;;;1.48;;
20743;SDS011;56303;52.160;-0.428;2023-08-21T13:54:19;3.03;;;1.25;;
20743;SDS011;56303;52.160;-0.428;2023-08-21T13:56:46;3.95;;;1.48;;
20743;SDS011;56303;52.160;-0.428;2023-08-21T13:59:13;3.65;;;1.50;;
20743;SDS011;56303;52.160;-0.428;2023-08-21T14:01:40;5.68;;;1.60;;
20743;SDS011;56303;52.160;-0.428;2023-08-21T14:04:07;2.10;;;1.33;;
20743;SDS011;56303;52.160;-0.428;2023-08-21T14:06:34;4.00;;;1.33;;
20743;SDS011;56303;52.160;-0.428;2023-08-21T14:09:01;5.38;;;1.83;;
20743;SDS011;56303;52.160;-0.428;2023-08-21T14:11:28;1.58;;;1.20;;
20743;SDS011;56303;52.160;-0.428;2023-08-21T14:13:55;2.85;;;1.45;;
20743;SDS011;56303;52.160;-0.428;2023-08-21T14:16:22;2.35;;;1.40;;
20743;SDS011;56303;52.160;-0.428;2023-08-21T14:18:49;4.60;;;1.40;;
20743;SDS011;56303;52.160;-0.428;2023-08-21T14:21:16;2.55;;;1.13;;
20743;SDS011;56303;52.160;-0.428;2023-08-21T14:23:43;4.05;;;1.60;;
20743;SDS011;56303;52.160;-0.428;2023-08-21T14:26:10;4.68;;;1.60;;
20743;SDS011;56303;52.160;-0.428;2023-08-21T14:28:37;3.35;;;1.38;;
20743;SDS011;56303;52.160;-0.428;2023-08-21T14:31:05;4.15;;;1.88;;
20743;SDS011;56303;52.160;-0.428;2023-08-21T14:33:32;3.78;;;1.40;;
20743;SDS011;56303;52.160;-0.428;2023-08-21T14:35:59;4.20;;;1.50;;
20743;SDS011;56303;52.160;-0.428;2023-08-21T14:38:26;2.85;;;1.58;;
20743;SDS011;56303;52.160;-0.428;2023-08-21T14:40:53;3.17;;;1.33;;
20743;SDS011;56303;52.160;-0.428;2023-08-21T14:43:20;4.25;;;1.80;;
20743;SDS011;56303;52.160;-0.428;2023-08-21T14:45:47;3.08;;;1.23;;
20743;SDS011;56303;52.160;-0.428;2023-08-21T14:48:14;3.40;;;1.45;;
20743;SDS011;56303;52.160;-0.428;2023-08-21T14:50:41;3.78;;;1.63;;